Time;durP1;ratioP1;P1;durP2;ratioP2;P2;SDS_P1;SDS_P2;PMS_P1;PMS_P2;Temp;Humidity;BMP_temperature;BMP_pressure;BME280_temperature;BME280_humidity;BME280_pressure;Samples;Min_cycle;Max_cycle;Signal;HPM_P1;HPM_P2
2022/12/13 00:01:38;;;;;;;67.78;27.55;;;;;;;;;;5043283;28;20353;-78
2022/12/13 00:04:05;;;;;;;69.83;27.30;;;;;;;;;;5041029;28;20029;-78
2022/12/13 00:06:32;;;;;;;74.73;28.43;;;;;;;;;;5052995;28;20291;-78
2022/12/13 00:08:58;;;;;;;71.38;28.77;;;;;;;;;;5042757;28;20367;-78
2022/12/13 00:11:25;;;;;;;72.25;28.05;;;;;;;;;;5053735;28;20040;-78
2022/12/13 00:13:51;;;;;;;64.33;27.07;;;;;;;;;;5043607;28;20024;-78
2022/12/13 00:16:23;;;;;;;65.20;25.17;;;;;;;;;;5042104;28;20264;-77
2022/12/13 00:18:50;;;;;;;65.57;25.92;;;;;;;;;;5057227;28;20308;-78
2022/12/13 00:21:17;;;;;;;63.30;26.65;;;;;;;;;;5040586;28;20037;-77
2022/12/13 00:23:44;;;;;;;59.67;25.38;;;;;;;;;;5055690;28;20087;-77
2022/12/13 00:26:11;;;;;;;56.50;25.88;;;;;;;;;;5053960;28;20037;-79
2022/12/13 00:28:38;;;;;;;61.33;26.07;;;;;;;;;;5059014;28;20045;-79
2022/12/13 00:31:04;;;;;;;68.77;28.17;;;;;;;;;;5055024;28;20267;-77
2022/12/13 00:33:30;;;;;;;71.82;30.00;;;;;;;;;;5044702;28;20291;-78
2022/12/13 00:35:56;;;;;;;76.37;29.33;;;;;;;;;;5038540;28;20025;-77
2022/12/13 00:38:25;;;;;;;86.57;31.93;;;;;;;;;;5041892;28;20260;-77
2022/12/13 00:40:52;;;;;;;79.77;32.27;;;;;;;;;;5056151;28;20783;-77
2022/12/13 00:43:18;;;;;;;72.97;31.52;;;;;;;;;;5041313;28;20271;-78
2022/12/13 00:45:45;;;;;;;79.23;31.53;;;;;;;;;;5037009;28;20599;-78
2022/12/13 00:48:14;;;;;;;68.20;29.13;;;;;;;;;;5057205;28;20329;-77
2022/12/13 00:50:40;;;;;;;81.60;31.00;;;;;;;;;;5046827;28;20280;-77
2022/12/13 00:53:06;;;;;;;75.37;31.10;;;;;;;;;;5039198;28;20296;-78
2022/12/13 00:55:32;;;;;;;76.57;30.20;;;;;;;;;;5038931;28;20283;-78
2022/12/13 00:57:58;;;;;;;79.47;30.13;;;;;;;;;;5059079;28;20022;-77
2022/12/13 01:00:24;;;;;;;78.75;31.60;;;;;;;;;;5041087;28;20313;-78
2022/12/13 01:02:52;;;;;;;79.07;30.50;;;;;;;;;;5040080;28;20033;-78
2022/12/13 01:05:18;;;;;;;77.78;30.90;;;;;;;;;;5040104;28;20287;-78
2022/12/13 01:07:44;;;;;;;77.35;30.70;;;;;;;;;;5038572;28;20029;-79
2022/12/13 01:10:13;;;;;;;72.57;30.83;;;;;;;;;;5053521;28;20025;-77
2022/12/13 01:12:39;;;;;;;71.97;30.08;;;;;;;;;;5054194;28;20287;-78
2022/12/13 01:15:05;;;;;;;87.47;33.03;;;;;;;;;;5043568;28;20025;-78
2022/12/13 01:17:31;;;;;;;80.65;32.92;;;;;;;;;;5036255;28;20672;-79
2022/12/13 01:19:57;;;;;;;82.87;31.67;;;;;;;;;;5047789;28;20566;-78
2022/12/13 01:22:24;;;;;;;78.05;32.38;;;;;;;;;;5040900;28;20278;-78
2022/12/13 01:24:50;;;;;;;75.85;30.17;;;;;;;;;;5055043;28;20018;-78
2022/12/13 01:27:16;;;;;;;77.68;33.30;;;;;;;;;;5055009;28;20025;-79
2022/12/13 01:29:45;;;;;;;77.47;30.85;;;;;;;;;;5055740;28;20350;-79
2022/12/13 01:32:11;;;;;;;76.20;33.03;;;;;;;;;;5055005;28;20036;-78
2022/12/13 01:34:37;;;;;;;79.22;32.70;;;;;;;;;;5037015;28;20064;-78
2022/12/13 01:37:03;;;;;;;86.43;33.08;;;;;;;;;;5044313;28;20017;-78
2022/12/13 01:39:29;;;;;;;85.45;33.42;;;;;;;;;;5054607;28;20025;-79
2022/12/13 01:41:58;;;;;;;78.50;32.97;;;;;;;;;;5055519;28;20025;-78
2022/12/13 01:44:43;;;;;;;79.88;32.88;;;;;;;;;;5054408;28;20028;-77
2022/12/13 01:47:09;;;;;;;92.28;33.35;;;;;;;;;;5048191;28;20025;-78
2022/12/13 01:49:35;;;;;;;88.32;34.10;;;;;;;;;;5056063;28;20103;-78
2022/12/13 01:52:04;;;;;;;80.23;32.37;;;;;;;;;;5052249;28;20142;-78
2022/12/13 01:54:34;;;;;;;87.60;34.13;;;;;;;;;;5046888;28;20290;-79
2022/12/13 01:57:01;;;;;;;79.03;32.67;;;;;;;;;;5058605;28;20252;-78
2022/12/13 01:59:28;;;;;;;79.13;32.83;;;;;;;;;;5054292;28;20799;-79
2022/12/13 02:01:54;;;;;;;84.77;33.57;;;;;;;;;;5044184;28;20264;-78
2022/12/13 02:04:28;;;;;;;85.03;32.83;;;;;;;;;;5050052;28;20274;-78
2022/12/13 02:06:55;;;;;;;81.53;32.13;;;;;;;;;;5054750;28;20303;-77
2022/12/13 02:09:22;;;;;;;79.45;33.17;;;;;;;;;;5040959;28;20265;-78
2022/12/13 02:11:51;;;;;;;88.45;33.75;;;;;;;;;;5041851;28;20064;-78
2022/12/13 02:14:17;;;;;;;73.05;30.15;;;;;;;;;;5043914;28;20029;-79
2022/12/13 02:16:51;;;;;;;74.57;32.17;;;;;;;;;;5048134;28;20018;-78
2022/12/13 02:19:35;;;;;;;79.93;33.75;;;;;;;;;;5048347;28;20248;-79
2022/12/13 02:22:13;;;;;;;75.60;30.73;;;;;;;;;;5041382;28;20430;-78
2022/12/13 02:24:57;;;;;;;75.70;34.08;;;;;;;;;;5055911;28;20021;-78
2022/12/13 02:27:23;;;;;;;79.32;31.23;;;;;;;;;;5038230;28;20026;-79
2022/12/13 02:30:09;;;;;;;74.25;29.55;;;;;;;;;;5050311;28;20343;-78
2022/12/13 02:32:38;;;;;;;73.25;30.52;;;;;;;;;;5038878;28;20442;-78
2022/12/13 02:35:05;;;;;;;72.65;30.95;;;;;;;;;;5034881;28;20450;-79
2022/12/13 02:37:39;;;;;;;77.70;30.52;;;;;;;;;;5051991;28;20104;-78
2022/12/13 02:40:13;;;;;;;78.75;31.15;;;;;;;;;;5052283;28;20025;-78
2022/12/13 02:42:51;;;;;;;75.13;29.83;;;;;;;;;;5050776;28;20389;-79
2022/12/13 02:45:20;;;;;;;76.30;30.15;;;;;;;;;;5036463;28;20098;-78
2022/12/13 02:47:51;;;;;;;80.72;30.65;;;;;;;;;;5053892;28;20021;-79
2022/12/13 02:50:19;;;;;;;77.47;30.45;;;;;;;;;;5054251;28;20025;-78
2022/12/13 02:52:45;;;;;;;79.65;30.85;;;;;;;;;;5046581;28;20028;-78
2022/12/13 02:55:12;;;;;;;74.90;31.73;;;;;;;;;;5048201;28;20025;-78
2022/12/13 02:57:43;;;;;;;70.55;30.33;;;;;;;;;;5064640;28;20136;-78
2022/12/13 03:00:09;;;;;;;67.13;28.63;;;;;;;;;;5047325;28;20547;-78
2022/12/13 03:02:38;;;;;;;77.15;29.60;;;;;;;;;;5044030;28;20063;-79
2022/12/13 03:07:49;;;;;;;72.88;27.95;;;;;;;;;;5044562;28;20084;-79
2022/12/13 03:10:19;;;;;;;72.47;29.90;;;;;;;;;;5057475;28;20075;-79
2022/12/13 03:15:33;;;;;;;64.47;28.17;;;;;;;;;;5051093;28;20063;-78
2022/12/13 03:18:04;;;;;;;74.30;30.60;;;;;;;;;;5055783;28;20048;-78
2022/12/13 03:20:30;;;;;;;68.40;29.30;;;;;;;;;;5056148;28;20310;-78
2022/12/13 03:22:56;;;;;;;71.95;30.25;;;;;;;;;;5053581;28;20034;-78
2022/12/13 03:25:26;;;;;;;71.63;30.17;;;;;;;;;;5046758;28;20032;-79
2022/12/13 03:27:53;;;;;;;74.40;30.33;;;;;;;;;;5048300;28;20032;-78
2022/12/13 03:30:19;;;;;;;71.07;29.50;;;;;;;;;;5051599;28;20033;-78
2022/12/13 03:32:45;;;;;;;70.88;30.48;;;;;;;;;;5056882;28;20025;-77
2022/12/13 03:35:11;;;;;;;71.22;28.33;;;;;;;;;;5066416;28;20029;-78
2022/12/13 03:37:37;;;;;;;76.30;29.80;;;;;;;;;;5057017;28;20021;-78
2022/12/13 03:40:03;;;;;;;77.00;29.10;;;;;;;;;;5061300;28;20859;-78
2022/12/13 03:42:29;;;;;;;75.40;29.35;;;;;;;;;;5065004;28;20068;-78
2022/12/13 03:44:55;;;;;;;74.65;28.40;;;;;;;;;;5054081;28;20079;-78
2022/12/13 03:47:21;;;;;;;69.65;28.65;;;;;;;;;;5049570;28;20021;-78
2022/12/13 03:49:47;;;;;;;76.13;31.05;;;;;;;;;;5059943;28;20387;-78
2022/12/13 03:52:13;;;;;;;74.28;30.27;;;;;;;;;;5056792;28;20452;-77
2022/12/13 03:54:42;;;;;;;74.63;29.17;;;;;;;;;;5038012;28;20026;-78
2022/12/13 03:57:08;;;;;;;74.60;30.00;;;;;;;;;;5055420;28;20025;-78
2022/12/13 03:59:36;;;;;;;86.00;30.40;;;;;;;;;;5049776;28;20037;-79
2022/12/13 04:02:02;;;;;;;76.00;28.40;;;;;;;;;;5037694;28;20022;-78
2022/12/13 04:04:28;;;;;;;69.93;28.92;;;;;;;;;;5050692;28;20091;-78
2022/12/13 04:06:56;;;;;;;70.03;30.10;;;;;;;;;;5062546;28;20025;-78
2022/12/13 04:09:22;;;;;;;73.75;29.63;;;;;;;;;;5056909;28;20028;-78
2022/12/13 04:14:33;;;;;;;72.20;28.42;;;;;;;;;;5061573;28;20456;-79
2022/12/13 04:16:59;;;;;;;72.70;29.58;;;;;;;;;;5065990;28;20112;-77
2022/12/13 04:19:25;;;;;;;68.45;28.17;;;;;;;;;;5060083;28;20052;-78
2022/12/13 04:21:52;;;;;;;74.38;31.33;;;;;;;;;;5056197;28;20017;-78
2022/12/13 04:24:19;;;;;;;66.97;28.10;;;;;;;;;;5056917;28;20441;-78
2022/12/13 04:26:47;;;;;;;72.38;30.33;;;;;;;;;;5051241;28;20036;-78
2022/12/13 04:29:15;;;;;;;67.05;28.15;;;;;;;;;;5046988;28;20029;-78
2022/12/13 04:31:41;;;;;;;61.70;27.95;;;;;;;;;;5051486;28;20025;-79
2022/12/13 04:34:07;;;;;;;70.57;29.13;;;;;;;;;;5047933;28;20127;-79
2022/12/13 04:36:33;;;;;;;73.45;30.02;;;;;;;;;;5066713;28;20029;-78
2022/12/13 04:39:03;;;;;;;74.18;30.20;;;;;;;;;;5055995;28;20024;-78
2022/12/13 04:41:29;;;;;;;72.65;30.83;;;;;;;;;;5056563;28;20017;-78
2022/12/13 04:43:55;;;;;;;73.60;29.75;;;;;;;;;;5055655;28;20093;-78
2022/12/13 04:46:22;;;;;;;69.20;27.95;;;;;;;;;;5046757;28;20025;-77
2022/12/13 04:48:48;;;;;;;67.40;28.73;;;;;;;;;;5053253;28;20066;-78
2022/12/13 04:51:15;;;;;;;71.63;28.00;;;;;;;;;;5049505;28;20579;-78
2022/12/13 04:53:41;;;;;;;73.97;28.85;;;;;;;;;;5053090;28;20743;-79
2022/12/13 04:56:07;;;;;;;68.95;28.67;;;;;;;;;;5061101;28;20467;-78
2022/12/13 04:58:34;;;;;;;63.95;26.55;;;;;;;;;;5063051;28;20020;-78
2022/12/13 05:01:00;;;;;;;66.30;26.98;;;;;;;;;;5059854;28;20098;-78
2022/12/13 05:03:26;;;;;;;69.95;29.23;;;;;;;;;;5059880;28;20029;-78
2022/12/13 05:05:57;;;;;;;62.30;28.02;;;;;;;;;;5043121;28;20037;-78
2022/12/13 05:08:23;;;;;;;72.63;30.98;;;;;;;;;;5049999;28;20025;-79
2022/12/13 05:10:49;;;;;;;69.35;28.42;;;;;;;;;;5042704;28;20084;-79
2022/12/13 05:13:16;;;;;;;72.43;30.10;;;;;;;;;;5035352;28;20025;-79
2022/12/13 05:15:42;;;;;;;70.57;29.27;;;;;;;;;;5043804;23;20463;-79
2022/12/13 05:18:08;;;;;;;80.72;29.98;;;;;;;;;;4994661;28;20080;-78
2022/12/13 05:20:34;;;;;;;67.13;29.42;;;;;;;;;;4998191;28;20455;-79
2022/12/13 05:23:01;;;;;;;72.50;30.80;;;;;;;;;;5005562;28;20023;-79
2022/12/13 05:25:27;;;;;;;75.30;31.10;;;;;;;;;;4995049;28;20026;-78
2022/12/13 05:27:53;;;;;;;74.20;28.15;;;;;;;;;;4995415;28;20466;-78
2022/12/13 05:30:19;;;;;;;72.35;30.40;;;;;;;;;;5000970;28;20042;-78
2022/12/13 05:32:48;;;;;;;77.75;31.85;;;;;;;;;;5001087;28;20027;-78
2022/12/13 05:35:15;;;;;;;73.47;31.35;;;;;;;;;;4996546;28;20057;-77
2022/12/13 05:37:44;;;;;;;71.05;29.13;;;;;;;;;;4997925;28;20490;-77
2022/12/13 05:40:10;;;;;;;71.00;30.27;;;;;;;;;;4997527;28;20451;-78
2022/12/13 05:42:37;;;;;;;79.25;30.42;;;;;;;;;;4998044;28;20031;-76
2022/12/13 05:45:04;;;;;;;73.30;29.67;;;;;;;;;;5011265;28;20574;-78
2022/12/13 05:47:30;;;;;;;79.38;30.40;;;;;;;;;;5003998;28;20057;-79
2022/12/13 05:49:58;;;;;;;67.88;29.85;;;;;;;;;;4994976;28;20734;-78
2022/12/13 05:52:24;;;;;;;70.80;30.20;;;;;;;;;;4994958;28;20068;-77
2022/12/13 05:54:55;;;;;;;81.07;32.60;;;;;;;;;;5006343;28;20018;-79
2022/12/13 05:57:21;;;;;;;78.43;30.92;;;;;;;;;;5010876;28;20357;-78
2022/12/13 05:59:47;;;;;;;81.53;30.50;;;;;;;;;;5002014;28;20040;-78
2022/12/13 06:02:13;;;;;;;71.18;28.67;;;;;;;;;;4998840;28;20097;-79
2022/12/13 06:04:39;;;;;;;63.67;28.45;;;;;;;;;;4991730;28;20478;-78
2022/12/13 06:07:05;;;;;;;66.30;26.52;;;;;;;;;;4997370;28;20590;-78
2022/12/13 06:09:31;;;;;;;70.13;27.25;;;;;;;;;;4996675;28;20041;-78
2022/12/13 06:11:57;;;;;;;66.25;27.60;;;;;;;;;;4994158;28;20034;-79
2022/12/13 06:14:23;;;;;;;62.22;27.30;;;;;;;;;;4994000;28;20059;-78
2022/12/13 06:16:50;;;;;;;60.78;25.10;;;;;;;;;;5000557;28;20030;-77
2022/12/13 06:19:18;;;;;;;71.43;28.80;;;;;;;;;;4993305;28;20089;-77
2022/12/13 06:21:46;;;;;;;64.38;26.42;;;;;;;;;;4994005;28;20015;-77
2022/12/13 06:24:19;;;;;;;65.88;27.98;;;;;;;;;;4995114;28;20156;-78
2022/12/13 06:26:45;;;;;;;63.70;28.85;;;;;;;;;;4994550;28;20581;-78
2022/12/13 06:29:12;;;;;;;70.63;29.38;;;;;;;;;;4994961;28;20034;-78
2022/12/13 06:31:38;;;;;;;69.75;29.05;;;;;;;;;;5010306;28;20034;-78
2022/12/13 06:34:07;;;;;;;70.63;28.73;;;;;;;;;;4993614;28;20474;-77
2022/12/13 06:36:33;;;;;;;69.55;28.30;;;;;;;;;;4993599;28;20101;-78
2022/12/13 06:39:08;;;;;;;72.57;30.42;;;;;;;;;;4987367;28;20054;-76
2022/12/13 06:41:35;;;;;;;67.82;27.85;;;;;;;;;;5009727;28;20034;-79
2022/12/13 06:44:01;;;;;;;62.20;26.92;;;;;;;;;;4993980;28;20556;-77
2022/12/13 06:46:27;;;;;;;69.07;29.17;;;;;;;;;;4997908;28;20030;-78
2022/12/13 06:48:53;;;;;;;72.55;28.58;;;;;;;;;;4985487;28;20026;-77
2022/12/13 06:51:19;;;;;;;67.50;29.42;;;;;;;;;;4993646;28;20030;-78
2022/12/13 06:53:45;;;;;;;65.88;26.45;;;;;;;;;;4995567;28;20039;-78
2022/12/13 06:56:15;;;;;;;73.53;29.20;;;;;;;;;;4992507;28;20030;-78
2022/12/13 06:58:41;;;;;;;69.18;28.25;;;;;;;;;;4993653;28;20112;-78
2022/12/13 07:01:12;;;;;;;65.55;27.45;;;;;;;;;;4989752;28;20162;-78
2022/12/13 07:03:38;;;;;;;67.10;26.50;;;;;;;;;;4989252;28;20157;-79
2022/12/13 07:06:05;;;;;;;70.07;29.40;;;;;;;;;;4991790;28;20041;-78
2022/12/13 07:08:32;;;;;;;63.33;26.45;;;;;;;;;;4987448;28;20070;-78
2022/12/13 07:10:58;;;;;;;67.00;26.95;;;;;;;;;;4984910;28;20050;-78
2022/12/13 07:13:24;;;;;;;62.50;24.85;;;;;;;;;;4987610;28;20026;-78
2022/12/13 07:15:50;;;;;;;61.92;25.63;;;;;;;;;;4986546;28;20027;-78
2022/12/13 07:18:16;;;;;;;65.18;25.83;;;;;;;;;;4993254;28;20042;-78
2022/12/13 07:20:43;;;;;;;67.93;27.63;;;;;;;;;;4993579;28;20411;-79
2022/12/13 07:23:09;;;;;;;64.72;26.70;;;;;;;;;;4988471;28;20114;-78
2022/12/13 07:25:35;;;;;;;67.13;27.00;;;;;;;;;;4986911;28;20042;-76
2022/12/13 07:28:03;;;;;;;69.47;28.73;;;;;;;;;;4985644;28;20458;-77
2022/12/13 07:30:30;;;;;;;94.53;40.72;;;;;;;;;;5003079;28;20073;-77
2022/12/13 07:32:58;;;;;;;103.47;47.60;;;;;;;;;;4992296;28;20045;-78
2022/12/13 07:35:24;;;;;;;87.93;40.80;;;;;;;;;;4991882;28;20026;-76
2022/12/13 07:37:50;;;;;;;75.97;32.80;;;;;;;;;;4990968;28;20160;-77
2022/12/13 07:40:16;;;;;;;71.25;36.08;;;;;;;;;;4991891;28;20117;-78
2022/12/13 07:42:48;;;;;;;62.30;28.63;;;;;;;;;;4993565;28;20074;-78
2022/12/13 07:45:17;;;;;;;70.32;32.63;;;;;;;;;;4991515;28;20014;-78
2022/12/13 07:47:45;;;;;;;63.08;29.88;;;;;;;;;;5006731;28;20027;-78
2022/12/13 07:50:11;;;;;;;80.68;38.17;;;;;;;;;;5005750;28;20073;-78
2022/12/13 07:52:37;;;;;;;80.90;34.92;;;;;;;;;;5003015;28;20014;-79
2022/12/13 07:55:04;;;;;;;64.63;29.15;;;;;;;;;;4989685;28;20026;-79
2022/12/13 07:57:30;;;;;;;65.93;33.38;;;;;;;;;;4993249;28;20415;-79
2022/12/13 07:59:57;;;;;;;65.47;28.98;;;;;;;;;;4991064;28;20068;-78
2022/12/13 08:02:23;;;;;;;69.53;31.88;;;;;;;;;;4997508;28;20437;-76
2022/12/13 08:04:49;;;;;;;89.78;40.67;;;;;;;;;;5012813;28;20038;-78
2022/12/13 08:07:15;;;;;;;78.05;35.13;;;;;;;;;;4996105;28;20427;-78
2022/12/13 08:09:41;;;;;;;71.43;33.03;;;;;;;;;;4991040;28;20367;-78
2022/12/13 08:12:07;;;;;;;62.53;27.73;;;;;;;;;;4993515;28;21080;-78
2022/12/13 08:14:33;;;;;;;65.15;31.48;;;;;;;;;;4998381;28;20034;-77
2022/12/13 08:16:59;;;;;;;100.38;50.80;;;;;;;;;;4996762;28;20036;-78
2022/12/13 08:19:26;;;;;;;78.05;38.78;;;;;;;;;;4997667;28;20027;-78
2022/12/13 08:21:52;;;;;;;83.75;34.45;;;;;;;;;;4992932;28;20367;-77
2022/12/13 08:24:18;;;;;;;140.40;57.37;;;;;;;;;;4994889;28;20030;-79
2022/12/13 08:26:44;;;;;;;93.75;41.83;;;;;;;;;;5004941;28;20273;-78
2022/12/13 08:29:14;;;;;;;109.50;50.47;;;;;;;;;;4991611;28;20061;-78
2022/12/13 08:31:40;;;;;;;82.73;36.37;;;;;;;;;;4994781;28;20741;-78
2022/12/13 08:34:07;;;;;;;61.50;27.47;;;;;;;;;;5006967;28;20279;-77
2022/12/13 08:36:33;;;;;;;66.18;28.98;;;;;;;;;;4998918;28;20622;-76
2022/12/13 08:39:03;;;;;;;57.80;24.27;;;;;;;;;;4991243;28;20014;-77
2022/12/13 08:41:29;;;;;;;52.57;25.07;;;;;;;;;;4994565;28;20320;-77
2022/12/13 08:43:55;;;;;;;57.20;25.90;;;;;;;;;;4993685;28;20908;-77
2022/12/13 08:46:21;;;;;;;54.80;25.27;;;;;;;;;;4990133;28;20333;-78
2022/12/13 08:48:49;;;;;;;61.93;27.43;;;;;;;;;;4995851;28;20276;-78
2022/12/13 08:51:16;;;;;;;51.90;25.13;;;;;;;;;;4996190;28;20261;-78
2022/12/13 08:53:42;;;;;;;58.07;26.47;;;;;;;;;;4995829;28;20662;-78
2022/12/13 08:56:11;;;;;;;73.93;31.33;;;;;;;;;;4996748;28;20249;-78
2022/12/13 08:58:38;;;;;;;73.27;35.17;;;;;;;;;;4994831;28;20726;-78
2022/12/13 09:01:07;;;;;;;94.53;48.40;;;;;;;;;;4990942;28;20272;-79
2022/12/13 09:03:34;;;;;;;103.53;45.43;;;;;;;;;;4992662;28;20258;-79
2022/12/13 09:06:07;;;;;;;107.90;47.47;;;;;;;;;;4996468;28;20285;-79
2022/12/13 09:08:36;;;;;;;175.47;74.77;;;;;;;;;;4992364;28;20262;-79
2022/12/13 09:11:02;;;;;;;201.33;91.23;;;;;;;;;;4995098;28;20372;-78
2022/12/13 09:13:32;;;;;;;120.47;52.43;;;;;;;;;;4996219;28;20286;-79
2022/12/13 09:15:58;;;;;;;74.83;36.07;;;;;;;;;;5009789;28;20274;-79
2022/12/13 09:18:25;;;;;;;66.80;31.97;;;;;;;;;;4992551;28;20611;-79
2022/12/13 09:20:51;;;;;;;57.30;26.23;;;;;;;;;;5010845;28;20714;-79
2022/12/13 09:23:17;;;;;;;60.07;26.23;;;;;;;;;;4990444;28;20276;-78
2022/12/13 09:25:43;;;;;;;52.77;24.57;;;;;;;;;;4993247;28;20272;-78
2022/12/13 09:28:09;;;;;;;59.33;25.40;;;;;;;;;;4990027;28;20274;-77
2022/12/13 09:30:36;;;;;;;69.90;32.73;;;;;;;;;;4992287;28;20702;-78
2022/12/13 09:33:02;;;;;;;80.87;36.77;;;;;;;;;;5010428;28;20300;-78
2022/12/13 09:35:28;;;;;;;63.57;31.30;;;;;;;;;;4996156;28;20284;-78
2022/12/13 09:37:55;;;;;;;97.77;45.37;;;;;;;;;;4992967;28;20349;-78
2022/12/13 09:40:26;;;;;;;56.33;25.03;;;;;;;;;;4998200;28;20941;-79
2022/12/13 09:42:53;;;;;;;53.27;25.63;;;;;;;;;;4990422;28;20266;-78
2022/12/13 09:45:19;;;;;;;63.33;31.70;;;;;;;;;;5004128;28;20274;-79
2022/12/13 09:47:46;;;;;;;46.13;23.07;;;;;;;;;;4988560;28;20268;-77
2022/12/13 09:50:14;;;;;;;49.03;24.10;;;;;;;;;;4991748;28;20580;-77
2022/12/13 09:52:41;;;;;;;57.30;23.77;;;;;;;;;;5010232;28;20262;-79
2022/12/13 09:55:21;;;;;;;49.67;26.87;;;;;;;;;;4995129;28;20376;-79
2022/12/13 09:57:50;;;;;;;44.33;20.93;;;;;;;;;;4994968;28;20717;-77
2022/12/13 10:00:21;;;;;;;45.63;22.70;;;;;;;;;;5008940;28;20261;-80
2022/12/13 10:02:48;;;;;;;46.43;22.33;;;;;;;;;;5004833;28;20274;-78
2022/12/13 10:05:14;;;;;;;43.80;21.17;;;;;;;;;;4992846;28;20392;-79
2022/12/13 10:07:40;;;;;;;45.13;20.63;;;;;;;;;;4992363;28;20258;-79
2022/12/13 10:10:08;;;;;;;42.03;20.53;;;;;;;;;;4996254;28;20560;-79
2022/12/13 10:12:38;;;;;;;39.10;17.93;;;;;;;;;;4986120;28;20281;-80
2022/12/13 10:15:07;;;;;;;47.87;21.40;;;;;;;;;;4999031;28;20286;-80
2022/12/13 10:17:36;;;;;;;39.50;20.50;;;;;;;;;;4995856;28;20288;-80
2022/12/13 10:20:02;;;;;;;41.37;19.70;;;;;;;;;;4986988;28;20298;-78
2022/12/13 10:22:31;;;;;;;42.37;20.20;;;;;;;;;;4995268;28;20349;-79
2022/12/13 10:24:58;;;;;;;40.10;19.57;;;;;;;;;;4999101;28;20280;-77
2022/12/13 10:27:30;;;;;;;40.37;19.00;;;;;;;;;;4988320;28;20304;-79
2022/12/13 10:30:02;;;;;;;36.23;19.83;;;;;;;;;;4994826;28;20269;-78
2022/12/13 10:32:32;;;;;;;40.58;19.20;;;;;;;;;;4992969;28;20257;-79
2022/12/13 10:34:59;;;;;;;35.77;17.33;;;;;;;;;;4994658;28;20023;-79
2022/12/13 10:37:29;;;;;;;40.10;19.37;;;;;;;;;;4987965;28;20263;-79
2022/12/13 10:39:56;;;;;;;39.63;18.77;;;;;;;;;;4992028;28;20262;-79
2022/12/13 10:42:22;;;;;;;40.97;19.73;;;;;;;;;;4991318;28;20605;-78
2022/12/13 10:44:48;;;;;;;38.77;19.07;;;;;;;;;;4992277;28;20586;-78
2022/12/13 10:47:20;;;;;;;39.03;19.27;;;;;;;;;;4998116;28;20265;-78
2022/12/13 10:49:48;;;;;;;37.03;17.30;;;;;;;;;;5003653;28;20286;-80
2022/12/13 10:52:31;;;;;;;40.30;19.73;;;;;;;;;;4988997;28;20288;-79
2022/12/13 10:54:57;;;;;;;;;;;;;;;;;;4990942;28;20297;-77
2022/12/13 10:57:23;;;;;;;38.93;17.50;;;;;;;;;;5012246;28;19906;-78
2022/12/13 10:59:50;;;;;;;31.63;16.53;;;;;;;;;;4988346;28;20023;-79
2022/12/13 11:02:28;;;;;;;33.30;17.63;;;;;;;;;;4998548;28;20258;-79
2022/12/13 11:04:55;;;;;;;34.43;17.00;;;;;;;;;;4994606;28;20273;-78
2022/12/13 11:07:23;;;;;;;41.80;18.40;;;;;;;;;;4993925;28;20276;-79
2022/12/13 11:09:51;;;;;;;36.70;18.43;;;;;;;;;;4992704;28;20622;-80
2022/12/13 11:12:22;;;;;;;37.37;18.17;;;;;;;;;;4993810;28;20277;-79
2022/12/13 11:14:50;;;;;;;41.23;18.13;;;;;;;;;;4988233;28;20626;-77
2022/12/13 11:17:19;;;;;;;37.90;18.13;;;;;;;;;;4996480;28;20404;-78
2022/12/13 11:19:46;;;;;;;45.97;23.70;;;;;;;;;;4988221;28;20356;-78
2022/12/13 11:22:44;;;;;;;38.43;18.87;;;;;;;;;;4987130;28;20297;-78
2022/12/13 11:25:22;;;;;;;98.07;47.60;;;;;;;;;;4948772;28;20285;-80
2022/12/13 11:27:57;;;;;;;43.63;20.87;;;;;;;;;;4987911;28;20384;-78
2022/12/13 11:30:33;;;;;;;41.53;20.07;;;;;;;;;;4999716;28;20289;-78
2022/12/13 11:33:08;;;;;;;34.80;17.77;;;;;;;;;;4987350;28;20282;-77
2022/12/13 11:36:00;;;;;;;157.00;64.07;;;;;;;;;;4987319;28;20373;-78
2022/12/13 11:38:38;;;;;;;69.03;30.07;;;;;;;;;;5003239;28;20274;-79
2022/12/13 11:41:12;;;;;;;90.93;38.40;;;;;;;;;;4994719;28;20282;-77
2022/12/13 11:43:44;;;;;;;58.60;28.40;;;;;;;;;;5004717;28;20292;-76
2022/12/13 11:46:19;;;;;;;33.92;17.98;;;;;;;;;;4986870;28;20832;-76
2022/12/13 11:48:55;;;;;;;61.70;31.60;;;;;;;;;;4985986;28;20157;-79
2022/12/13 11:51:25;;;;;;;43.03;22.20;;;;;;;;;;4999278;28;20282;-76
2022/12/13 11:54:04;;;;;;;35.93;18.47;;;;;;;;;;5005608;28;20293;-75
2022/12/13 11:56:31;;;;;;;32.17;17.00;;;;;;;;;;5003019;28;20364;-77
2022/12/13 11:59:03;;;;;;;29.40;16.37;;;;;;;;;;4992857;28;20329;-78
2022/12/13 12:01:40;;;;;;;32.58;16.55;;;;;;;;;;4992539;28;20274;-76
2022/12/13 12:04:11;;;;;;;32.70;16.63;;;;;;;;;;5004819;28;20093;-78
2022/12/13 12:06:40;;;;;;;30.90;16.83;;;;;;;;;;4988325;28;20266;-78
2022/12/13 12:09:12;;;;;;;32.27;15.27;;;;;;;;;;4980491;28;20273;-77
2022/12/13 12:11:38;;;;;;;31.07;15.33;;;;;;;;;;4986322;28;20274;-76
2022/12/13 12:14:09;;;;;;;33.20;17.00;;;;;;;;;;4985869;28;20278;-76
2022/12/13 12:17:07;;;;;;;36.67;14.83;;;;;;;;;;5002683;28;20042;-76
2022/12/13 12:19:37;;;;;;;27.57;15.10;;;;;;;;;;4957267;28;20282;-76
2022/12/13 12:22:03;;;;;;;26.20;14.37;;;;;;;;;;4986878;28;20273;-79
2022/12/13 12:24:51;;;;;;;33.57;15.73;;;;;;;;;;4998882;28;20284;-78
2022/12/13 12:27:22;;;;;;;37.03;16.93;;;;;;;;;;4984797;28;20038;-76
2022/12/13 12:29:49;;;;;;;30.93;15.50;;;;;;;;;;4984044;28;20277;-77
2022/12/13 12:32:34;;;;;;;31.87;16.90;;;;;;;;;;4985011;28;20316;-75
2022/12/13 12:35:11;;;;;;;33.70;15.30;;;;;;;;;;4985830;28;20297;-76
2022/12/13 12:37:56;;;;;;;30.83;16.10;;;;;;;;;;5001274;28;20293;-79
2022/12/13 12:40:25;;;;;;;28.47;14.70;;;;;;;;;;4988717;28;20369;-78
2022/12/13 12:43:13;;;;;;;28.43;15.47;;;;;;;;;;4986428;28;20308;-76
2022/12/13 12:45:48;;;;;;;29.93;15.67;;;;;;;;;;4983432;28;20274;-77
2022/12/13 12:48:23;;;;;;;31.67;16.27;;;;;;;;;;4986313;28;20274;-78
2022/12/13 12:51:05;;;;;;;31.47;16.90;;;;;;;;;;4991212;28;20281;-77
2022/12/13 12:53:34;;;;;;;31.57;17.40;;;;;;;;;;5000059;28;20290;-77
2022/12/13 12:56:00;;;;;;;34.37;17.00;;;;;;;;;;4986439;28;20302;-78
2022/12/13 12:58:33;;;;;;;29.47;14.87;;;;;;;;;;4997749;28;20277;-75
2022/12/13 13:01:02;;;;;;;30.90;15.05;;;;;;;;;;4979248;28;20365;-78
2022/12/13 13:03:30;;;;;;;30.60;15.27;;;;;;;;;;4983418;28;20031;-77
2022/12/13 13:06:07;;;;;;;26.33;13.57;;;;;;;;;;5001917;28;20277;-77
2022/12/13 13:08:43;;;;;;;29.10;12.83;;;;;;;;;;4994053;28;20369;-78
2022/12/13 13:11:09;;;;;;;27.73;13.60;;;;;;;;;;4999508;28;20776;-76
2022/12/13 13:13:37;;;;;;;27.97;14.10;;;;;;;;;;4999889;28;20282;-75
2022/12/13 13:16:04;;;;;;;53.93;34.23;;;;;;;;;;4991740;28;20285;-77
2022/12/13 13:18:49;;;;;;;32.97;18.37;;;;;;;;;;4995341;28;20266;-77
2022/12/13 13:21:30;;;;;;;27.17;14.13;;;;;;;;;;5011217;28;20274;-76
2022/12/13 13:24:11;;;;;;;22.33;12.70;;;;;;;;;;5012656;28;20297;-78
2022/12/13 13:26:37;;;;;;;25.73;13.40;;;;;;;;;;4987307;28;20268;-78
2022/12/13 13:29:25;;;;;;;26.67;13.67;;;;;;;;;;4992453;28;20273;-78
2022/12/13 13:32:06;;;;;;;24.63;12.80;;;;;;;;;;5014043;28;20269;-78
2022/12/13 13:34:34;;;;;;;24.57;12.13;;;;;;;;;;5004602;28;20293;-77
2022/12/13 13:37:01;;;;;;;27.30;13.17;;;;;;;;;;4992142;28;20274;-77
2022/12/13 13:39:27;;;;;;;23.23;12.77;;;;;;;;;;4990552;28;20253;-78
2022/12/13 13:42:08;;;;;;;24.00;12.47;;;;;;;;;;5008290;28;20620;-77
2022/12/13 13:44:37;;;;;;;26.07;12.60;;;;;;;;;;4992032;28;20254;-78
2022/12/13 13:47:11;;;;;;;23.90;11.23;;;;;;;;;;5006873;28;20269;-78
2022/12/13 13:49:40;;;;;;;22.37;10.43;;;;;;;;;;4994991;28;20277;-77
2022/12/13 13:52:17;;;;;;;25.47;12.03;;;;;;;;;;4994316;28;20659;-77
2022/12/13 13:54:43;;;;;;;23.83;11.20;;;;;;;;;;4989746;28;20282;-76
2022/12/13 13:57:15;;;;;;;23.37;13.07;;;;;;;;;;4991593;28;20296;-76
2022/12/13 13:59:44;;;;;;;21.15;11.80;;;;;;;;;;4989859;28;20274;-77
2022/12/13 14:02:20;;;;;;;25.27;11.73;;;;;;;;;;4991492;28;21304;-78
2022/12/13 14:04:56;;;;;;;21.97;11.70;;;;;;;;;;4993008;28;20265;-76
2022/12/13 14:07:40;;;;;;;25.03;12.60;;;;;;;;;;4994653;28;20272;-79
2022/12/13 14:10:28;;;;;;;26.87;13.83;;;;;;;;;;4993884;28;20321;-77
2022/12/13 14:12:57;;;;;;;25.37;13.23;;;;;;;;;;4991723;28;20269;-78
2022/12/13 14:15:43;;;;;;;27.63;12.90;;;;;;;;;;5008182;28;20321;-77
2022/12/13 14:18:27;;;;;;;27.73;13.47;;;;;;;;;;4991233;28;20801;-78
2022/12/13 14:20:56;;;;;;;23.90;12.37;;;;;;;;;;4993753;28;20308;-81
2022/12/13 14:23:41;;;;;;;25.90;12.63;;;;;;;;;;4996185;28;20270;-78
2022/12/13 14:26:07;;;;;;;26.37;12.47;;;;;;;;;;4992599;28;20278;-79
2022/12/13 14:28:52;;;;;;;27.70;14.20;;;;;;;;;;4994310;28;20261;-78
2022/12/13 14:31:21;;;;;;;25.77;13.03;;;;;;;;;;4994368;28;20030;-78
2022/12/13 14:33:47;;;;;;;26.53;12.73;;;;;;;;;;4994559;28;20290;-78
2022/12/13 14:36:15;;;;;;;23.77;12.43;;;;;;;;;;4994275;28;20268;-77